createdAt,value
2022-10-07T00:01:00.036Z,3.87
2022-10-07T00:03:28.443Z,3.90
2022-10-07T00:06:11.087Z,3.90
2022-10-07T00:08:41.210Z,4.60
2022-10-07T00:11:16.923Z,4.87
2022-10-07T00:13:46.271Z,4.80
2022-10-07T00:16:17.282Z,4.40
2022-10-07T00:18:45.311Z,5.55
2022-10-07T00:21:15.025Z,5.40
2022-10-07T00:23:43.831Z,4.93
2022-10-07T00:26:14.520Z,4.95
2022-10-07T00:28:42.624Z,5.30
2022-10-07T00:31:32.232Z,5.22
2022-10-07T00:34:01.795Z,5.37
2022-10-07T00:36:31.695Z,6.22
2022-10-07T00:39:01.656Z,5.53
2022-10-07T00:41:35.854Z,5.20
2022-10-07T00:44:31.363Z,5.40
2022-10-07T00:47:00.236Z,5.50
2022-10-07T00:49:30.289Z,5.10
2022-10-07T00:51:58.191Z,5.90
2022-10-07T00:54:25.971Z,5.10
2022-10-07T00:56:53.634Z,5.18
2022-10-07T00:59:21.250Z,5.50
2022-10-07T01:01:48.999Z,4.78
2022-10-07T01:04:17.343Z,4.72
2022-10-07T01:06:45.776Z,5.47
2022-10-07T01:09:14.408Z,4.90
2022-10-07T01:11:44.957Z,5.10
2022-10-07T01:14:39.105Z,5.18
2022-10-07T01:17:32.015Z,5.28
2022-10-07T01:20:02.420Z,4.93
2022-10-07T01:23:16.707Z,4.70
2022-10-07T01:26:06.896Z,5.10
2022-10-07T01:28:38.224Z,5.25
2022-10-07T01:31:08.231Z,5.28
2022-10-07T01:33:37.151Z,5.40
2022-10-07T01:36:10.895Z,4.70
2022-10-07T01:38:42.035Z,5.53
2022-10-07T01:41:15.100Z,5.53
2022-10-07T01:43:44.927Z,5.75
2022-10-07T01:46:27.343Z,4.80
2022-10-07T01:48:56.533Z,5.40
2022-10-07T01:51:26.101Z,5.47
2022-10-07T01:54:36.017Z,5.45
2022-10-07T01:57:19.165Z,5.40
2022-10-07T02:00:06.893Z,5.30
2022-10-07T02:03:02.412Z,4.93
2022-10-07T02:05:57.917Z,5.35
2022-10-07T02:08:36.656Z,5.50
2022-10-07T02:11:21.051Z,5.55
2022-10-07T02:14:13.970Z,5.57
2022-10-07T02:17:02.544Z,5.57
2022-10-07T02:19:35.123Z,5.65
2022-10-07T02:22:04.154Z,6.15
2022-10-07T02:24:35.639Z,6.60
2022-10-07T02:27:06.681Z,6.07
2022-10-07T02:29:36.358Z,5.62
2022-10-07T02:32:07.430Z,5.55
2022-10-07T02:34:36.235Z,5.53
2022-10-07T02:37:11.628Z,6.47
2022-10-07T02:39:39.163Z,5.50
2022-10-07T02:42:15.191Z,5.85
2022-10-07T02:45:02.244Z,5.60
2022-10-07T02:47:42.757Z,5.50
2022-10-07T02:50:13.509Z,5.32
2022-10-07T02:52:42.307Z,5.93
2022-10-07T02:55:13.217Z,5.90
2022-10-07T03:23:12.339Z,5.80
2022-10-07T03:25:41.164Z,6.22
2022-10-07T03:28:09.059Z,6.32
2022-10-07T03:30:36.509Z,6.03
2022-10-07T03:33:04.580Z,7.10
2022-10-07T03:35:32.122Z,5.97
2022-10-07T03:37:59.899Z,6.07
2022-10-07T03:40:28.180Z,6.40
2022-10-07T03:42:55.869Z,6.75
2022-10-07T03:45:23.441Z,7.03
2022-10-07T03:47:51.365Z,5.90
2022-10-07T03:50:19.684Z,6.25
2022-10-07T03:52:47.117Z,7.18
2022-10-07T03:55:14.889Z,6.37
2022-10-07T03:57:58.413Z,6.37
2022-10-07T04:00:28.095Z,6.10
2022-10-07T04:02:56.261Z,6.35
2022-10-07T04:05:24.630Z,6.00
2022-10-07T04:07:52.378Z,5.87
2022-10-07T04:10:21.447Z,6.45
2022-10-07T04:12:49.671Z,5.90
2022-10-07T04:15:17.393Z,5.90
2022-10-07T04:17:47.324Z,7.20
2022-10-07T04:20:16.469Z,6.97
2022-10-07T04:22:44.206Z,7.50
2022-10-07T04:25:31.281Z,5.90
2022-10-07T04:28:00.531Z,6.60
2022-10-07T04:30:34.853Z,6.00
2022-10-07T04:33:02.938Z,6.05
2022-10-07T04:35:31.176Z,6.82
2022-10-07T04:37:58.956Z,6.70
2022-10-07T04:40:27.578Z,6.25
2022-10-07T04:43:14.245Z,6.87
2022-10-07T04:45:41.865Z,6.47
2022-10-07T04:48:10.190Z,6.57
2022-10-07T04:50:38.732Z,6.37
2022-10-07T04:53:07.728Z,6.20
2022-10-07T04:55:41.120Z,6.35
2022-10-07T04:58:09.084Z,6.12
2022-10-07T05:00:44.944Z,6.82
2022-10-07T05:03:13.720Z,6.50
2022-10-07T05:05:46.600Z,6.90
2022-10-07T05:08:15.802Z,7.70
2022-10-07T05:10:44.380Z,6.78
2022-10-07T05:13:14.133Z,7.05
2022-10-07T05:15:53.134Z,6.87
2022-10-07T05:18:22.354Z,5.97
2022-10-07T05:20:51.017Z,7.32
2022-10-07T05:23:25.785Z,7.00
2022-10-07T05:26:07.794Z,7.32
2022-10-07T05:28:36.209Z,7.73
2022-10-07T05:31:12.027Z,6.90
2022-10-07T05:33:40.218Z,7.55
2022-10-07T05:36:09.137Z,7.50
2022-10-07T05:38:37.213Z,7.22
2022-10-07T05:41:07.199Z,7.30
2022-10-07T05:43:36.588Z,8.25
2022-10-07T05:46:06.857Z,7.82
2022-10-07T05:48:39.232Z,7.40
2022-10-07T05:51:08.488Z,7.37
2022-10-07T05:53:36.277Z,7.43
2022-10-07T05:56:08.395Z,6.47
2022-10-07T05:58:36.458Z,6.50
2022-10-07T06:01:11.362Z,7.55
2022-10-07T06:03:42.281Z,7.07
2022-10-07T06:06:10.861Z,6.53
2022-10-07T06:08:38.411Z,6.80
2022-10-07T06:11:25.753Z,6.72
2022-10-07T06:13:54.585Z,6.85
2022-10-07T06:16:23.290Z,7.80
2022-10-07T06:18:53.344Z,6.77
2022-10-07T06:21:28.034Z,7.12
2022-10-07T06:23:58.455Z,6.95
2022-10-07T06:26:26.311Z,6.62
2022-10-07T06:28:54.723Z,7.25
2022-10-07T06:31:25.062Z,8.10
2022-10-07T06:33:53.567Z,7.18
2022-10-07T06:36:24.423Z,7.82
2022-10-07T06:38:54.379Z,7.75
2022-10-07T06:41:23.610Z,7.70
2022-10-07T06:43:55.861Z,7.97
2022-10-07T06:46:25.763Z,7.85
2022-10-07T06:48:55.212Z,8.18
2022-10-07T06:51:24.294Z,8.23
2022-10-07T06:53:54.245Z,8.85
2022-10-07T06:56:21.988Z,9.13
2022-10-07T06:58:52.619Z,9.50
2022-10-07T07:01:21.062Z,9.30
2022-10-07T07:03:48.632Z,9.70
2022-10-07T07:06:17.159Z,10.05
2022-10-07T07:08:45.951Z,9.70
2022-10-07T07:11:32.931Z,9.98
2022-10-07T07:14:06.084Z,11.38
2022-10-07T07:16:35.577Z,10.68
2022-10-07T07:19:06.066Z,10.93
2022-10-07T07:21:34.609Z,10.83
2022-10-07T07:24:02.712Z,11.07
2022-10-07T07:26:31.037Z,11.52
2022-10-07T07:29:01.330Z,11.50
2022-10-07T07:31:31.727Z,11.40
2022-10-07T07:34:02.166Z,12.33
2022-10-07T07:36:31.934Z,11.38
2022-10-07T07:39:02.353Z,12.07
2022-10-07T07:41:32.060Z,11.30
2022-10-07T07:44:01.899Z,11.27
2022-10-07T07:46:36.218Z,11.10
2022-10-07T07:49:04.419Z,10.80
2022-10-07T07:51:33.332Z,11.63
2022-10-07T07:54:01.073Z,10.93
2022-10-07T07:56:31.911Z,10.70
2022-10-07T07:59:00.673Z,11.37
2022-10-07T08:01:31.995Z,10.32
2022-10-07T08:04:00.868Z,10.98
2022-10-07T08:06:28.749Z,10.95
2022-10-07T08:08:59.410Z,11.02
2022-10-07T08:11:28.349Z,10.77
2022-10-07T08:13:56.443Z,10.73
2022-10-07T08:16:26.534Z,9.95
2022-10-07T08:18:56.122Z,10.13
2022-10-07T08:21:26.893Z,10.75
2022-10-07T08:23:58.221Z,9.70
2022-10-07T08:26:28.751Z,9.48
2022-10-07T08:28:57.945Z,9.75
2022-10-07T08:31:30.051Z,8.38
2022-10-07T08:34:00.242Z,9.30
2022-10-07T08:36:29.546Z,8.83
2022-10-07T08:38:57.111Z,9.52
2022-10-07T08:41:34.066Z,8.27
2022-10-07T08:44:08.163Z,8.63
2022-10-07T08:46:37.626Z,4.37
2022-10-07T08:49:17.119Z,4.80
2022-10-07T08:51:58.548Z,6.10
2022-10-07T08:54:28.323Z,5.32
2022-10-07T08:57:01.543Z,4.40
2022-10-07T08:59:34.136Z,4.40
2022-10-07T09:02:15.752Z,3.17
2022-10-07T09:05:08.237Z,3.47
2022-10-07T09:07:39.677Z,4.85
2022-10-07T09:10:10.290Z,3.42
2022-10-07T09:12:50.675Z,3.67
2022-10-07T09:15:27.459Z,4.00
2022-10-07T09:17:59.413Z,3.45
2022-10-07T09:20:31.859Z,3.37
2022-10-07T09:23:00.561Z,3.10
2022-10-07T09:25:29.625Z,3.70
2022-10-07T09:27:57.841Z,2.77
2022-10-07T09:30:27.970Z,3.03
2022-10-07T09:32:55.794Z,3.55
2022-10-07T09:35:26.117Z,3.40
2022-10-07T09:38:08.220Z,3.45
2022-10-07T09:41:00.576Z,3.17
2022-10-07T09:43:29.798Z,3.80
2022-10-07T09:45:58.086Z,3.40
2022-10-07T09:48:28.381Z,3.15
2022-10-07T09:51:13.825Z,3.53
2022-10-07T09:53:55.257Z,3.40
2022-10-07T09:56:43.775Z,3.70
2022-10-07T09:59:30.825Z,3.92
2022-10-07T10:02:04.627Z,3.35
2022-10-07T10:04:35.624Z,3.35
2022-10-07T10:07:20.628Z,3.37
2022-10-07T10:10:03.346Z,3.83
2022-10-07T10:12:36.225Z,3.03
2022-10-07T10:15:23.881Z,3.03
2022-10-07T10:17:51.713Z,2.90
2022-10-07T10:20:29.333Z,3.20
2022-10-07T10:22:57.440Z,3.15
2022-10-07T10:25:51.448Z,3.33
2022-10-07T10:28:44.904Z,3.03
2022-10-07T10:31:20.679Z,3.33
2022-10-07T10:34:24.992Z,2.90
2022-10-07T10:37:03.922Z,3.12
2022-10-07T10:40:01.900Z,2.95
2022-10-07T10:42:45.281Z,3.62
2022-10-07T10:45:42.495Z,3.58
2022-10-07T10:48:13.538Z,3.17
2022-10-07T10:50:55.162Z,3.33
2022-10-07T10:53:54.731Z,3.45
2022-10-07T10:56:59.017Z,2.97
2022-10-07T10:59:55.239Z,3.55
2022-10-07T11:02:31.870Z,3.50
2022-10-07T11:05:13.958Z,3.50
2022-10-07T11:08:10.436Z,3.37
2022-10-07T11:10:51.936Z,3.15
2022-10-07T11:13:27.410Z,3.37
2022-10-07T11:16:01.720Z,3.60
2022-10-07T11:18:41.965Z,3.42
2022-10-07T11:21:15.878Z,3.90
2022-10-07T11:23:50.385Z,3.10
2022-10-07T11:26:32.443Z,3.72
2022-10-07T11:29:10.574Z,3.27
2022-10-07T11:31:42.398Z,4.45
2022-10-07T11:34:20.355Z,3.60
2022-10-07T11:37:03.284Z,3.35
2022-10-07T11:39:30.938Z,3.33
2022-10-07T11:42:07.841Z,3.10
2022-10-07T11:44:47.714Z,2.72
2022-10-07T11:47:18.158Z,3.33
2022-10-07T11:50:24.551Z,3.03
2022-10-07T11:52:55.689Z,3.10
2022-10-07T11:55:26.709Z,3.30
2022-10-07T11:57:56.945Z,3.17
2022-10-07T12:00:25.558Z,3.80
2022-10-07T12:02:57.659Z,2.75
2022-10-07T12:05:34.237Z,2.85
2022-10-07T12:08:23.898Z,2.53
2022-10-07T12:10:56.267Z,3.00
2022-10-07T12:13:23.924Z,2.75
2022-10-07T12:15:51.402Z,2.40
2022-10-07T12:18:26.176Z,3.20
2022-10-07T12:20:53.848Z,2.60
2022-10-07T12:23:25.765Z,2.40
2022-10-07T12:25:56.192Z,2.80
2022-10-07T12:28:36.574Z,2.60
2022-10-07T12:31:16.784Z,2.53
2022-10-07T12:33:44.542Z,2.97
2022-10-07T12:36:31.390Z,2.97
2022-10-07T12:38:59.500Z,2.60
2022-10-07T12:41:30.171Z,2.80
2022-10-07T12:44:07.022Z,3.10
2022-10-07T12:46:43.025Z,2.60
2022-10-07T12:49:16.548Z,2.80
2022-10-07T12:51:44.671Z,3.70
2022-10-07T12:54:17.774Z,3.28
2022-10-07T12:56:46.129Z,3.10
2022-10-07T12:59:52.080Z,3.20
2022-10-07T13:02:53.764Z,2.80
2022-10-07T13:05:48.880Z,2.95
2022-10-07T13:08:34.786Z,2.90
2022-10-07T13:11:43.171Z,2.92
2022-10-07T13:14:19.575Z,3.40
2022-10-07T13:16:55.272Z,2.75
2022-10-07T13:19:50.501Z,2.83
2022-10-07T13:22:18.982Z,2.20
2022-10-07T13:24:54.008Z,2.70
2022-10-07T13:27:26.851Z,2.50
2022-10-07T13:29:56.300Z,3.70
2022-10-07T13:32:30.195Z,3.12
2022-10-07T13:34:59.094Z,3.25
2022-10-07T13:37:33.851Z,3.12
2022-10-07T13:40:35.441Z,3.33
2022-10-07T13:43:08.807Z,3.62
2022-10-07T13:45:45.125Z,3.00
2022-10-07T13:48:16.076Z,2.53
2022-10-07T13:50:44.373Z,3.10
2022-10-07T13:53:21.860Z,2.77
2022-10-07T13:55:49.651Z,2.78
2022-10-07T13:58:18.539Z,2.78
2022-10-07T14:00:47.457Z,2.80
2022-10-07T14:03:17.033Z,2.60
2022-10-07T14:06:02.257Z,3.17
2022-10-07T14:08:31.097Z,2.90
2022-10-07T14:10:58.539Z,2.80
2022-10-07T14:13:28.953Z,2.97
2022-10-07T14:15:57.704Z,2.87
2022-10-07T14:18:27.606Z,3.40
2022-10-07T14:20:57.593Z,3.12
2022-10-07T14:23:34.182Z,2.92
2022-10-07T14:26:04.231Z,3.65
2022-10-07T14:28:34.308Z,3.03
2022-10-07T14:31:23.738Z,3.00
2022-10-07T14:34:17.351Z,3.17
2022-10-07T14:37:26.173Z,3.70
2022-10-07T14:39:56.155Z,3.20
2022-10-07T14:42:28.876Z,3.47
2022-10-07T14:44:57.160Z,3.00
2022-10-07T14:47:28.023Z,3.22
2022-10-07T14:49:56.887Z,3.17
2022-10-07T14:52:31.609Z,3.50
2022-10-07T14:55:03.169Z,3.50
2022-10-07T14:57:31.152Z,3.73
2022-10-07T14:59:58.970Z,3.22
2022-10-07T15:02:26.548Z,3.72
2022-10-07T15:04:54.107Z,3.90
2022-10-07T15:07:21.912Z,3.15
2022-10-07T15:09:50.655Z,3.60
2022-10-07T15:12:18.005Z,3.95
2022-10-07T15:14:45.711Z,3.17
2022-10-07T15:17:14.333Z,3.10
2022-10-07T15:19:41.884Z,3.00
2022-10-07T15:22:09.546Z,2.83
2022-10-07T15:24:37.350Z,2.72
2022-10-07T15:27:06.468Z,3.45
2022-10-07T15:29:34.160Z,3.05
2022-10-07T15:32:01.669Z,3.28
2022-10-07T15:34:29.158Z,2.63
2022-10-07T15:36:56.934Z,3.00
2022-10-07T15:39:24.443Z,3.08
2022-10-07T15:41:52.060Z,3.22
2022-10-07T15:44:22.132Z,2.78
2022-10-07T15:46:53.029Z,3.13
2022-10-07T15:49:21.127Z,2.90
2022-10-07T15:51:48.609Z,2.95
2022-10-07T15:54:16.483Z,2.90
2022-10-07T15:56:45.211Z,2.80
2022-10-07T15:59:12.721Z,3.10
2022-10-07T16:01:40.190Z,3.12
2022-10-07T16:04:11.613Z,3.17
2022-10-07T16:06:39.351Z,3.20
2022-10-07T16:09:07.328Z,3.75
2022-10-07T16:11:35.012Z,3.07
2022-10-07T16:14:03.021Z,2.62
2022-10-07T16:16:33.845Z,3.42
2022-10-07T16:19:01.950Z,2.95
2022-10-07T16:21:32.111Z,2.60
2022-10-07T16:24:08.915Z,3.20
2022-10-07T16:26:37.540Z,2.70
2022-10-07T16:29:26.268Z,3.40
2022-10-07T16:31:58.372Z,3.28
2022-10-07T16:34:28.266Z,3.40
2022-10-07T16:36:56.948Z,2.77
2022-10-07T16:39:24.985Z,3.35
2022-10-07T16:41:52.664Z,3.00
2022-10-07T16:44:23.864Z,3.50
2022-10-07T16:46:56.696Z,3.40
2022-10-07T16:49:26.166Z,3.37
2022-10-07T16:51:54.328Z,3.22
2022-10-07T16:54:22.038Z,3.33
2022-10-07T16:56:52.360Z,3.30
2022-10-07T16:59:23.724Z,3.97
2022-10-07T17:01:55.583Z,3.50
2022-10-07T17:04:24.611Z,3.37
2022-10-07T17:06:53.430Z,3.40
2022-10-07T17:09:22.016Z,3.35
2022-10-07T17:11:49.644Z,3.40
2022-10-07T17:14:19.588Z,3.60
2022-10-07T17:16:49.114Z,3.20
2022-10-07T17:19:19.874Z,3.45
2022-10-07T17:21:48.409Z,3.20
2022-10-07T17:24:16.858Z,3.00
2022-10-07T17:26:45.610Z,3.77
2022-10-07T17:29:15.080Z,3.28
2022-10-07T17:31:43.512Z,3.33
2022-10-07T17:34:11.959Z,3.37
2022-10-07T17:36:39.999Z,3.60
2022-10-07T17:39:07.944Z,3.30
2022-10-07T17:41:37.417Z,3.10
2022-10-07T17:44:09.387Z,4.10
2022-10-07T17:46:39.303Z,3.80
2022-10-07T17:49:08.846Z,3.70
2022-10-07T17:51:37.379Z,4.30
2022-10-07T17:54:06.321Z,4.00
2022-10-07T17:56:36.937Z,4.35
2022-10-07T17:59:05.482Z,4.22
2022-10-07T18:01:34.441Z,3.78
2022-10-07T18:04:07.415Z,4.40
2022-10-07T18:06:37.809Z,4.07
2022-10-07T18:09:07.118Z,3.97
2022-10-07T18:11:53.273Z,3.90
2022-10-07T18:14:40.128Z,4.32
2022-10-07T18:17:09.115Z,3.67
2022-10-07T18:19:37.896Z,3.97
2022-10-07T18:22:05.360Z,3.50
2022-10-07T18:24:32.835Z,4.00
2022-10-07T18:27:02.400Z,3.92
2022-10-07T18:29:32.266Z,4.07
2022-10-07T18:32:01.074Z,3.62
2022-10-07T18:34:28.575Z,3.65
2022-10-07T18:36:57.245Z,4.65
2022-10-07T18:39:27.657Z,4.47
2022-10-07T18:41:55.633Z,3.93
2022-10-07T18:44:23.028Z,3.60
2022-10-07T18:46:50.929Z,3.85
2022-10-07T18:49:19.798Z,3.90
2022-10-07T18:51:50.313Z,3.65
2022-10-07T18:54:21.816Z,3.57
2022-10-07T18:56:50.510Z,3.85
2022-10-07T18:59:19.662Z,4.03
2022-10-07T19:01:50.525Z,3.90
2022-10-07T19:04:19.499Z,4.35
2022-10-07T19:06:47.676Z,3.80
2022-10-07T19:09:17.922Z,3.58
2022-10-07T19:11:49.160Z,4.43
2022-10-07T19:14:16.776Z,4.07
2022-10-07T19:16:46.467Z,4.03
2022-10-07T19:19:24.634Z,4.13
2022-10-07T19:21:54.135Z,4.28
2022-10-07T19:24:42.635Z,3.90
2022-10-07T19:27:10.060Z,4.37
2022-10-07T19:29:37.980Z,3.75
2022-10-07T19:32:08.601Z,3.70
2022-10-07T19:34:36.318Z,4.12
2022-10-07T19:37:04.120Z,4.05
2022-10-07T19:39:31.617Z,3.97
2022-10-07T19:41:59.238Z,4.10
2022-10-07T19:44:27.687Z,4.13
2022-10-07T19:46:55.292Z,3.87
2022-10-07T19:49:22.844Z,3.60
2022-10-07T19:51:50.549Z,3.90
2022-10-07T19:54:18.044Z,3.90
2022-10-07T19:56:46.496Z,4.17
2022-10-07T19:59:14.754Z,4.65
2022-10-07T20:01:43.896Z,5.10
2022-10-07T20:04:14.171Z,5.10
2022-10-07T20:06:42.687Z,5.10
2022-10-07T20:09:13.310Z,4.23
2022-10-07T20:11:41.026Z,4.65
2022-10-07T20:14:10.078Z,4.93
2022-10-07T20:16:39.029Z,4.55
2022-10-07T20:19:14.307Z,5.10
2022-10-07T20:21:42.088Z,4.40
2022-10-07T20:24:14.424Z,5.00
2022-10-07T20:26:45.125Z,5.87
2022-10-07T20:29:15.324Z,5.90
2022-10-07T20:31:43.433Z,5.55
2022-10-07T20:34:16.430Z,5.47
2022-10-07T20:36:44.190Z,6.18
2022-10-07T20:39:35.608Z,6.57
2022-10-07T20:42:22.134Z,6.53
2022-10-07T20:44:54.865Z,7.10
2022-10-07T20:47:23.594Z,6.80
2022-10-07T20:49:56.634Z,6.72
2022-10-07T20:52:26.221Z,7.15
2022-10-07T20:54:54.116Z,6.55
2022-10-07T20:57:24.181Z,7.35
2022-10-07T20:59:51.921Z,6.67
2022-10-07T21:02:21.254Z,7.72
2022-10-07T21:04:48.793Z,6.75
2022-10-07T21:07:17.551Z,7.07
2022-10-07T21:09:45.120Z,7.43
2022-10-07T21:12:14.884Z,6.87
2022-10-07T21:14:44.119Z,8.10
2022-10-07T21:17:12.216Z,6.95
2022-10-07T21:19:41.650Z,7.07
2022-10-07T21:22:09.519Z,8.18
2022-10-07T21:24:40.756Z,7.43
2022-10-07T21:27:08.589Z,7.57
2022-10-07T21:29:40.811Z,8.30
2022-10-07T21:32:10.262Z,7.03
2022-10-07T21:34:40.802Z,7.53
2022-10-07T21:37:08.433Z,7.80
2022-10-07T21:39:35.900Z,7.45
2022-10-07T21:42:04.090Z,7.82
2022-10-07T21:44:33.490Z,7.10
2022-10-07T21:47:01.088Z,8.18
2022-10-07T21:49:28.746Z,7.13
2022-10-07T21:51:56.243Z,7.47
2022-10-07T21:54:23.674Z,8.23
2022-10-07T21:56:51.397Z,7.65
2022-10-07T21:59:18.773Z,8.07
2022-10-07T22:01:46.234Z,7.57
2022-10-07T22:04:18.446Z,8.10
2022-10-07T22:07:05.313Z,8.10
2022-10-07T22:09:33.411Z,7.12
2022-10-07T22:12:00.877Z,7.62
2022-10-07T22:14:44.539Z,7.30
2022-10-07T22:17:14.259Z,7.80
2022-10-07T22:19:41.791Z,7.65
2022-10-07T22:22:09.206Z,7.43
2022-10-07T22:24:36.918Z,7.25
2022-10-07T22:27:04.482Z,6.83
2022-10-07T22:29:31.947Z,7.80
2022-10-07T22:31:59.718Z,7.90
2022-10-07T22:34:45.702Z,7.30
2022-10-07T22:37:13.409Z,6.82
2022-10-07T22:39:41.346Z,6.97
2022-10-07T22:42:08.765Z,7.00
2022-10-07T22:44:36.454Z,6.85
2022-10-07T22:47:03.836Z,7.45
2022-10-07T22:49:31.245Z,7.57
2022-10-07T22:51:59.922Z,7.40
2022-10-07T22:54:27.981Z,7.00
2022-10-07T22:56:55.626Z,7.10
2022-10-07T22:59:23.355Z,6.72
2022-10-07T23:01:50.796Z,6.37
2022-10-07T23:04:20.323Z,6.93
2022-10-07T23:06:48.347Z,6.35
2022-10-07T23:09:15.796Z,6.82
2022-10-07T23:11:43.225Z,7.07
2022-10-07T23:14:11.969Z,7.32
2022-10-07T23:16:39.378Z,7.43
2022-10-07T23:19:06.765Z,6.90
2022-10-07T23:21:34.843Z,6.90
2022-10-07T23:24:08.025Z,7.25
2022-10-07T23:26:36.536Z,6.82
2022-10-07T23:29:04.192Z,7.20
2022-10-07T23:31:32.736Z,6.55
2022-10-07T23:34:01.737Z,6.90
2022-10-07T23:36:29.645Z,6.00
2022-10-07T23:38:59.335Z,7.40
2022-10-07T23:41:29.119Z,6.97
2022-10-07T23:43:58.347Z,6.68
2022-10-07T23:46:26.769Z,7.65
2022-10-07T23:48:54.936Z,7.18
2022-10-07T23:51:24.171Z,7.00
2022-10-07T23:53:51.777Z,6.83
2022-10-07T23:56:19.596Z,7.15
2022-10-07T23:58:46.976Z,7.93
